Time;durP1;ratioP1;P1;durP2;ratioP2;P2;SDS_P1;SDS_P2;PMS_P1;PMS_P2;Temp;Humidity;BMP_temperature;BMP_pressure;BME280_temperature;BME280_humidity;BME280_pressure;Samples;Min_cycle;Max_cycle;Signal;HPM_P1;HPM_P2
2023/07/15 00:01:27;;;;;;;2.72;1.70;;;28.70;39.90;;;;;;6144063;29;20067;-75
2023/07/15 00:04:29;;;;;;;3.13;1.50;;;28.60;40.10;;;;;;6097719;29;20059;-75
2023/07/15 00:07:30;;;;;;;5.55;1.85;;;28.50;40.20;;;;;;6081746;29;20040;-76
2023/07/15 00:10:37;;;;;;;2.08;1.75;;;28.40;40.50;;;;;;6113077;29;20074;-75
2023/07/15 00:13:37;;;;;;;4.53;1.98;;;28.40;40.90;;;;;;6097005;29;20032;-74
2023/07/15 00:16:39;;;;;;;3.08;1.98;;;28.40;41.00;;;;;;6102345;29;20043;-75
2023/07/15 00:19:40;;;;;;;2.85;1.67;;;28.40;41.20;;;;;;6120444;29;20444;-75
2023/07/15 00:22:44;;;;;;;3.70;2.00;;;28.30;41.40;;;;;;6120208;29;20638;-75
2023/07/15 00:25:45;;;;;;;9.32;1.60;;;28.30;41.70;;;;;;6121051;29;20039;-76
2023/07/15 00:28:46;;;;;;;2.55;1.60;;;28.30;41.90;;;;;;6120360;29;20043;-75
2023/07/15 00:31:49;;;;;;;3.50;1.88;;;28.30;42.30;;;;;;6136148;28;20459;-75
2023/07/15 00:34:49;;;;;;;6.65;1.80;;;28.40;42.40;;;;;;6136596;28;20040;-76
2023/07/15 00:37:53;;;;;;;4.90;1.95;;;28.40;42.50;;;;;;6120453;28;20471;-75
2023/07/15 00:40:57;;;;;;;5.47;2.25;;;28.40;42.50;;;;;;6135902;28;20468;-74
2023/07/15 00:44:01;;;;;;;6.38;2.03;;;28.50;42.80;;;;;;6136097;28;20032;-74
2023/07/15 00:47:03;;;;;;;6.72;2.08;;;28.50;42.80;;;;;;6144542;28;20115;-75
2023/07/15 00:50:05;;;;;;;7.05;2.05;;;28.40;43.20;;;;;;6143185;28;20427;-75
2023/07/15 00:53:06;;;;;;;3.47;2.05;;;28.40;43.20;;;;;;6121895;28;20115;-74
2023/07/15 00:56:07;;;;;;;6.50;1.92;;;28.40;43.30;;;;;;6096207;29;20092;-75
2023/07/15 00:59:10;;;;;;;2.75;1.73;;;28.30;43.70;;;;;;6112270;29;20127;-75
2023/07/15 01:02:13;;;;;;;7.78;1.98;;;28.30;43.70;;;;;;6098401;29;20028;-75
2023/07/15 01:05:14;;;;;;;12.98;2.40;;;28.30;43.70;;;;;;6111894;29;20054;-74
2023/07/15 01:08:16;;;;;;;11.43;2.13;;;28.20;43.70;;;;;;6104633;29;20039;-73
2023/07/15 01:11:17;;;;;;;3.42;2.00;;;28.20;43.90;;;;;;6103308;29;20032;-75
2023/07/15 01:14:19;;;;;;;5.45;1.90;;;28.10;43.90;;;;;;6137885;29;20051;-75
2023/07/15 01:17:21;;;;;;;9.90;1.98;;;28.10;43.80;;;;;;6159678;28;20074;-75
2023/07/15 01:20:25;;;;;;;5.25;2.08;;;28.10;43.30;;;;;;6143343;29;20047;-74
2023/07/15 01:23:29;;;;;;;5.32;1.98;;;28.00;43.00;;;;;;6141678;28;20035;-74
2023/07/15 01:26:31;;;;;;;3.42;2.17;;;28.00;42.40;;;;;;6127838;29;20043;-75
2023/07/15 01:29:32;;;;;;;5.28;1.85;;;27.90;42.20;;;;;;6159498;28;20042;-75
2023/07/15 01:32:32;;;;;;;5.95;2.20;;;27.80;42.20;;;;;;6124943;29;20039;-74
2023/07/15 01:35:34;;;;;;;3.13;1.80;;;27.70;42.20;;;;;;6120440;29;20071;-75
2023/07/15 01:38:37;;;;;;;3.15;1.98;;;27.60;42.30;;;;;;6135415;28;20035;-75
2023/07/15 01:41:38;;;;;;;3.45;1.88;;;27.50;42.60;;;;;;6140262;28;20392;-74
2023/07/15 01:44:41;;;;;;;3.30;1.80;;;27.40;42.70;;;;;;6135541;29;20035;-75
2023/07/15 01:47:44;;;;;;;5.00;2.15;;;27.30;43.20;;;;;;6119259;29;20368;-74
2023/07/15 01:50:46;;;;;;;3.17;1.77;;;27.20;43.40;;;;;;6135371;29;20039;-75
2023/07/15 01:53:47;;;;;;;4.95;2.28;;;27.10;43.60;;;;;;6135242;28;20032;-74
2023/07/15 01:56:48;;;;;;;5.13;1.67;;;27.10;43.70;;;;;;6120256;29;20031;-74
2023/07/15 01:59:57;;;;;;;7.28;1.80;;;27.00;43.70;;;;;;6124050;29;20122;-73
2023/07/15 02:02:58;;;;;;;9.45;1.90;;;27.10;43.90;;;;;;6108644;29;20103;-74
2023/07/15 02:06:00;;;;;;;3.95;2.00;;;27.00;44.10;;;;;;6140141;28;20598;-74
2023/07/15 02:09:07;;;;;;;12.00;1.88;;;27.00;44.40;;;;;;6140686;28;20027;-73
2023/07/15 02:12:08;;;;;;;5.93;2.00;;;26.90;44.40;;;;;;6123658;29;20400;-75
2023/07/15 02:15:09;;;;;;;4.82;1.90;;;26.90;44.40;;;;;;6139914;28;20480;-75
2023/07/15 02:18:12;;;;;;;5.03;1.88;;;26.90;44.50;;;;;;6124531;29;20036;-73
2023/07/15 02:21:12;;;;;;;2.78;2.00;;;26.90;44.30;;;;;;6122959;29;20472;-74
2023/07/15 02:24:13;;;;;;;2.78;1.80;;;26.80;44.10;;;;;;6123755;29;20046;-75
2023/07/15 02:27:16;;;;;;;3.35;2.20;;;26.80;44.20;;;;;;6123398;29;20039;-75
2023/07/15 02:30:19;;;;;;;7.10;2.45;;;26.80;44.40;;;;;;6122686;29;20059;-74
2023/07/15 02:33:23;;;;;;;5.45;2.03;;;26.70;44.40;;;;;;6123552;29;20401;-74
2023/07/15 02:36:24;;;;;;;4.65;1.90;;;26.70;44.60;;;;;;6122726;29;20042;-74
2023/07/15 02:39:26;;;;;;;3.75;2.03;;;26.70;44.80;;;;;;6146244;28;20027;-73
2023/07/15 02:42:27;;;;;;;2.60;1.95;;;26.60;44.90;;;;;;6132816;29;20504;-73
2023/07/15 02:45:28;;;;;;;3.97;2.17;;;26.50;44.90;;;;;;6131095;29;20032;-75
2023/07/15 02:48:29;;;;;;;12.35;2.28;;;26.50;44.90;;;;;;6131393;28;20609;-76
2023/07/15 02:51:30;;;;;;;2.35;1.95;;;26.40;44.90;;;;;;6123003;29;20171;-75
2023/07/15 02:54:32;;;;;;;8.43;1.98;;;26.40;45.20;;;;;;6122515;29;20042;-76
2023/07/15 02:57:33;;;;;;;4.70;2.25;;;26.40;45.40;;;;;;6138560;29;20457;-75
2023/07/15 03:00:36;;;;;;;3.88;2.40;;;26.50;45.20;;;;;;6123718;29;20064;-74
2023/07/15 03:03:38;;;;;;;3.38;1.98;;;26.50;45.00;;;;;;6124173;29;20028;-75
2023/07/15 03:06:41;;;;;;;3.20;2.17;;;26.40;44.80;;;;;;6107457;29;20038;-75
2023/07/15 03:09:43;;;;;;;3.33;2.00;;;26.40;44.80;;;;;;6105667;29;20032;-75
2023/07/15 03:12:44;;;;;;;5.22;2.00;;;26.40;45.00;;;;;;6122293;29;20039;-75
2023/07/15 03:15:46;;;;;;;4.95;2.13;;;26.30;45.10;;;;;;6122888;29;20048;-74
2023/07/15 03:18:47;;;;;;;4.45;2.30;;;26.30;45.20;;;;;;6137376;28;20119;-75
2023/07/15 03:21:50;;;;;;;2.30;1.80;;;26.30;45.40;;;;;;6121395;29;20040;-74
2023/07/15 03:24:51;;;;;;;5.65;2.30;;;26.20;45.30;;;;;;6137420;29;20035;-75
2023/07/15 03:27:52;;;;;;;6.43;2.38;;;26.20;45.50;;;;;;6137946;29;20028;-75
2023/07/15 03:30:54;;;;;;;2.83;1.90;;;26.10;45.50;;;;;;6136507;29;20126;-75
2023/07/15 03:33:56;;;;;;;4.07;1.80;;;26.00;45.50;;;;;;6131182;29;20098;-75
2023/07/15 03:36:57;;;;;;;4.20;2.38;;;26.00;45.50;;;;;;6129401;29;20071;-76
2023/07/15 03:40:07;;;;;;;4.85;2.30;;;26.00;46.00;;;;;;6161479;28;20397;-74
2023/07/15 03:43:08;;;;;;;8.88;2.13;;;26.10;46.20;;;;;;6116713;29;20086;-74
2023/07/15 03:46:09;;;;;;;6.03;2.00;;;26.20;46.50;;;;;;6136441;29;20102;-74
2023/07/15 03:49:10;;;;;;;5.32;2.08;;;26.20;46.40;;;;;;6160596;28;20031;-75
2023/07/15 03:52:12;;;;;;;2.58;2.20;;;26.20;46.90;;;;;;6138234;28;20391;-75
2023/07/15 03:55:13;;;;;;;5.95;1.95;;;26.10;47.00;;;;;;6121318;29;20387;-74
2023/07/15 03:58:14;;;;;;;3.20;1.83;;;26.10;47.10;;;;;;6105586;29;20039;-76
2023/07/15 04:01:15;;;;;;;4.25;1.92;;;26.20;47.20;;;;;;6136375;28;20063;-76
2023/07/15 04:04:16;;;;;;;2.85;1.65;;;26.50;46.90;;;;;;6120355;29;20495;-76
2023/07/15 04:07:18;;;;;;;4.90;2.10;;;26.60;46.50;;;;;;6103472;29;20036;-73
2023/07/15 04:10:20;;;;;;;3.67;2.00;;;26.50;46.70;;;;;;6120382;29;20115;-75
2023/07/15 04:13:21;;;;;;;5.00;2.10;;;26.40;47.10;;;;;;6104451;29;20035;-74
2023/07/15 04:16:22;;;;;;;8.82;2.33;;;26.40;47.40;;;;;;6120675;29;20047;-75
2023/07/15 04:19:22;;;;;;;4.15;2.13;;;26.40;47.50;;;;;;6135792;28;20059;-74
2023/07/15 04:22:24;;;;;;;5.55;2.00;;;26.40;47.50;;;;;;6121787;28;20040;-77
2023/07/15 04:25:25;;;;;;;5.45;2.17;;;26.30;47.60;;;;;;6137141;29;20050;-76
2023/07/15 04:28:26;;;;;;;3.22;2.05;;;26.30;48.00;;;;;;6136024;29;20039;-75
2023/07/15 04:31:28;;;;;;;6.82;2.13;;;26.30;48.20;;;;;;6132201;29;20062;-74
2023/07/15 04:34:29;;;;;;;7.38;2.00;;;26.30;48.20;;;;;;6119810;29;20119;-75
2023/07/15 04:37:30;;;;;;;2.58;1.92;;;26.40;48.20;;;;;;6119810;29;20475;-74
2023/07/15 04:40:31;;;;;;;4.50;2.40;;;26.80;48.10;;;;;;6121691;29;20024;-75
2023/07/15 04:43:33;;;;;;;6.10;2.35;;;26.30;47.80;;;;;;6119984;29;20078;-74
2023/07/15 04:46:36;;;;;;;3.70;2.15;;;26.30;48.00;;;;;;6121468;29;20139;-76
2023/07/15 04:49:38;;;;;;;7.43;2.35;;;26.30;48.20;;;;;;6121378;29;20578;-76
2023/07/15 04:52:41;;;;;;;7.13;2.03;;;26.30;48.00;;;;;;6094051;29;20127;-74
2023/07/15 04:55:43;;;;;;;4.28;2.33;;;26.30;48.00;;;;;;6122339;29;20077;-74
2023/07/15 04:58:44;;;;;;;4.05;2.35;;;26.40;47.50;;;;;;6103974;29;20460;-74
2023/07/15 05:01:45;;;;;;;3.08;2.00;;;26.50;47.90;;;;;;6126824;29;20245;-74
2023/07/15 05:04:46;;;;;;;4.32;2.10;;;25.60;45.70;;;;;;6120578;29;20447;-75
2023/07/15 05:07:49;;;;;;;3.85;1.80;;;26.50;45.60;;;;;;6104286;29;20130;-76
2023/07/15 05:10:52;;;;;;;5.65;2.55;;;26.50;44.80;;;;;;6104686;29;20524;-75
2023/07/15 05:13:53;;;;;;;4.90;2.40;;;26.40;44.60;;;;;;6120443;29;20115;-75
2023/07/15 05:16:55;;;;;;;4.93;2.22;;;26.30;44.60;;;;;;6121139;29;20055;-75
2023/07/15 05:19:57;;;;;;;4.88;2.35;;;26.20;44.70;;;;;;6121596;29;20035;-74
2023/07/15 05:23:01;;;;;;;5.72;2.42;;;26.10;44.80;;;;;;6121459;29;20043;-75
2023/07/15 05:26:02;;;;;;;3.88;2.38;;;26.10;45.00;;;;;;6142358;29;20031;-76
2023/07/15 05:29:03;;;;;;;3.83;2.22;;;26.20;45.30;;;;;;6142753;28;20047;-75
2023/07/15 05:32:04;;;;;;;3.85;2.10;;;26.30;45.10;;;;;;6145406;28;20057;-75
2023/07/15 05:35:06;;;;;;;4.03;2.28;;;26.40;45.10;;;;;;6149343;28;20383;-75
2023/07/15 05:38:08;;;;;;;5.38;2.58;;;26.50;44.90;;;;;;6147361;28;20055;-75
2023/07/15 05:41:11;;;;;;;6.10;2.10;;;26.50;44.70;;;;;;6164064;28;20032;-76
2023/07/15 05:44:12;;;;;;;2.28;1.73;;;26.50;44.70;;;;;;6149175;28;20035;-75
2023/07/15 05:47:14;;;;;;;4.40;1.67;;;26.50;44.70;;;;;;6139829;28;20170;-74
2023/07/15 05:50:18;;;;;;;3.35;2.20;;;26.50;44.70;;;;;;6126070;29;20054;-74
2023/07/15 05:53:20;;;;;;;3.33;2.40;;;26.40;44.60;;;;;;6139549;29;20028;-75
2023/07/15 05:56:21;;;;;;;5.05;2.05;;;26.40;44.30;;;;;;6162015;28;20035;-74
2023/07/15 05:59:22;;;;;;;3.55;2.10;;;26.50;44.30;;;;;;6149358;28;20055;-74
2023/07/15 06:02:25;;;;;;;3.15;2.40;;;26.60;44.20;;;;;;6149336;28;20039;-75
2023/07/15 06:05:27;;;;;;;4.30;2.20;;;26.60;44.20;;;;;;6163348;28;20035;-74
2023/07/15 06:08:28;;;;;;;5.82;2.70;;;26.70;44.50;;;;;;6146606;29;20035;-74
2023/07/15 06:11:30;;;;;;;5.28;2.38;;;26.70;45.50;;;;;;6149751;28;20404;-75
2023/07/15 06:14:32;;;;;;;4.82;2.45;;;26.80;44.90;;;;;;6163791;28;20027;-75
2023/07/15 06:17:34;;;;;;;3.80;2.05;;;27.00;45.00;;;;;;6162679;28;20649;-75
2023/07/15 06:20:41;;;;;;;4.10;2.30;;;27.00;45.40;;;;;;6146931;28;20046;-75
2023/07/15 06:23:42;;;;;;;9.87;2.20;;;27.10;46.10;;;;;;6143574;28;20058;-74
2023/07/15 06:26:43;;;;;;;5.88;2.45;;;27.10;46.40;;;;;;6123749;29;20158;-75
2023/07/15 06:29:47;;;;;;;6.32;2.30;;;27.20;46.80;;;;;;6107498;29;20032;-77
2023/07/15 06:32:49;;;;;;;8.65;2.60;;;27.10;46.90;;;;;;6107258;29;20032;-74
2023/07/15 06:35:50;;;;;;;5.85;2.42;;;27.30;47.30;;;;;;6107096;29;20590;-75
2023/07/15 06:38:50;;;;;;;6.07;2.70;;;27.40;47.20;;;;;;6106653;29;20079;-75
2023/07/15 06:41:51;;;;;;;7.63;2.13;;;27.60;47.90;;;;;;6137929;28;20448;-75
2023/07/15 06:44:52;;;;;;;3.35;2.75;;;27.60;47.40;;;;;;6127201;29;20047;-75
2023/07/15 06:47:54;;;;;;;5.35;2.60;;;27.70;47.50;;;;;;6146144;29;20035;-76
2023/07/15 06:50:55;;;;;;;3.30;1.83;;;27.90;47.40;;;;;;6162146;28;20325;-75
2023/07/15 06:53:56;;;;;;;4.95;2.03;;;28.00;47.20;;;;;;6123799;29;20039;-75
2023/07/15 06:56:57;;;;;;;4.55;2.38;;;28.00;47.20;;;;;;6106709;29;20032;-75
2023/07/15 06:59:58;;;;;;;7.15;2.80;;;28.10;47.30;;;;;;6123955;29;20028;-76
2023/07/15 07:03:00;;;;;;;3.08;2.08;;;28.20;47.20;;;;;;6145331;29;20182;-76
2023/07/15 07:06:04;;;;;;;4.65;2.33;;;28.20;47.00;;;;;;6138634;28;20031;-76
2023/07/15 07:09:09;;;;;;;4.90;2.28;;;28.30;47.10;;;;;;6139193;28;20094;-75
2023/07/15 07:12:11;;;;;;;3.03;2.20;;;28.40;47.10;;;;;;6123364;29;20076;-76
2023/07/15 07:15:12;;;;;;;3.72;1.90;;;28.50;47.10;;;;;;6122085;29;20050;-74
2023/07/15 07:18:14;;;;;;;5.82;2.22;;;28.60;46.90;;;;;;6127281;29;20070;-77
2023/07/15 07:21:15;;;;;;;3.60;2.10;;;28.80;46.40;;;;;;6144650;28;20039;-75
2023/07/15 07:24:16;;;;;;;3.28;2.25;;;29.00;46.60;;;;;;6106157;29;20061;-75
2023/07/15 07:27:17;;;;;;;6.90;2.40;;;29.10;45.60;;;;;;6105777;29;20122;-75
2023/07/15 07:30:19;;;;;;;10.85;2.65;;;29.40;45.20;;;;;;6121529;29;20473;-75
2023/07/15 07:33:20;;;;;;;3.38;2.08;;;29.60;44.50;;;;;;6121250;29;20491;-75
2023/07/15 07:36:22;;;;;;;3.70;2.00;;;29.80;43.80;;;;;;6121806;29;20035;-76
2023/07/15 07:39:24;;;;;;;4.38;2.25;;;30.00;43.10;;;;;;6137574;29;20056;-76
2023/07/15 07:42:26;;;;;;;2.90;1.85;;;30.30;41.90;;;;;;6137612;29;20130;-74
2023/07/15 07:45:27;;;;;;;5.22;2.15;;;30.50;41.20;;;;;;6137247;28;20042;-73
2023/07/15 07:48:28;;;;;;;5.95;2.22;;;30.80;40.60;;;;;;6121138;29;20031;-76
2023/07/15 07:51:29;;;;;;;4.80;2.30;;;31.00;39.80;;;;;;6120790;29;20388;-73
2023/07/15 07:54:30;;;;;;;3.67;2.25;;;31.10;39.40;;;;;;6135449;29;20046;-77
2023/07/15 07:57:31;;;;;;;8.02;2.17;;;31.30;39.10;;;;;;6119732;29;20032;-76
2023/07/15 08:00:32;;;;;;;8.93;2.72;;;31.50;38.70;;;;;;6103973;29;20088;-75
2023/07/15 08:03:33;;;;;;;6.15;1.95;;;31.60;38.00;;;;;;6119195;29;20458;-75
2023/07/15 08:06:34;;;;;;;4.65;2.25;;;31.80;37.00;;;;;;6136081;29;20032;-76
2023/07/15 08:09:37;;;;;;;4.45;2.17;;;32.00;34.80;;;;;;6136295;28;20448;-76
2023/07/15 08:12:38;;;;;;;5.97;1.92;;;32.30;33.70;;;;;;6135474;28;20039;-75
2023/07/15 08:15:40;;;;;;;6.63;2.08;;;32.60;31.30;;;;;;6134010;28;20051;-73
2023/07/15 08:18:42;;;;;;;2.78;1.63;;;32.70;30.00;;;;;;6118604;29;20110;-77
2023/07/15 08:21:44;;;;;;;5.90;1.75;;;33.20;30.00;;;;;;6117824;29;20674;-75
2023/07/15 08:24:46;;;;;;;4.95;1.98;;;33.40;29.50;;;;;;6120057;29;20109;-74
2023/07/15 08:27:47;;;;;;;2.33;1.70;;;33.70;29.00;;;;;;6117607;29;20395;-74
2023/07/15 08:30:49;;;;;;;5.72;1.70;;;33.90;28.50;;;;;;6101967;29;20031;-75
2023/07/15 08:33:52;;;;;;;2.92;2.00;;;34.20;28.30;;;;;;6120213;29;20032;-75
2023/07/15 08:36:52;;;;;;;3.65;1.92;;;34.50;27.80;;;;;;6102597;29;20130;-75
2023/07/15 08:39:54;;;;;;;2.38;1.35;;;34.70;27.40;;;;;;6120393;29;20027;-76
2023/07/15 08:42:55;;;;;;;10.35;1.90;;;34.90;27.00;;;;;;6102642;29;20043;-76
2023/07/15 08:46:06;;;;;;;3.20;1.73;;;34.90;26.30;;;;;;6103163;29;20047;-75
2023/07/15 08:49:08;;;;;;;6.82;1.83;;;35.00;25.70;;;;;;6119236;29;20036;-75
2023/07/15 08:52:10;;;;;;;4.63;1.90;;;35.10;26.10;;;;;;6119014;29;20031;-75
2023/07/15 08:55:13;;;;;;;3.00;1.95;;;35.10;25.20;;;;;;6120607;29;20035;-77
2023/07/15 08:58:15;;;;;;;4.47;1.75;;;35.30;25.30;;;;;;6120644;29;20031;-76
2023/07/15 09:01:17;;;;;;;4.57;1.90;;;35.40;25.00;;;;;;6138973;29;20725;-74
2023/07/15 09:04:18;;;;;;;3.97;1.98;;;35.40;24.90;;;;;;6160808;28;20073;-74
2023/07/15 09:07:29;;;;;;;5.55;1.75;;;35.30;24.90;;;;;;6160609;28;20399;-76
2023/07/15 09:10:31;;;;;;;4.72;1.85;;;35.40;24.80;;;;;;6159278;28;20043;-74
2023/07/15 09:13:32;;;;;;;5.13;1.60;;;35.40;24.60;;;;;;6121715;29;20075;-76
2023/07/15 09:16:39;;;;;;;3.95;2.00;;;35.40;24.80;;;;;;6120826;29;20024;-74
2023/07/15 09:19:39;;;;;;;4.03;1.60;;;35.40;25.00;;;;;;6119185;29;20430;-77
2023/07/15 09:22:42;;;;;;;4.95;1.95;;;35.50;24.90;;;;;;6120526;29;20031;-76
2023/07/15 09:25:54;;;;;;;4.75;1.80;;;35.40;24.60;;;;;;6136721;29;20034;-74
2023/07/15 09:28:56;;;;;;;5.05;1.73;;;36.10;25.00;;;;;;6135698;29;20046;-76
2023/07/15 09:31:58;;;;;;;9.60;1.90;;;35.50;24.50;;;;;;6134631;29;20039;-75
2023/07/15 09:34:59;;;;;;;7.95;1.80;;;35.50;24.50;;;;;;6134607;29;20065;-76
2023/07/15 09:38:00;;;;;;;5.07;2.10;;;35.50;24.40;;;;;;6118570;29;20036;-77
2023/07/15 09:41:04;;;;;;;2.67;1.65;;;35.50;24.50;;;;;;6133967;29;20491;-75
2023/07/15 09:44:05;;;;;;;8.55;1.98;;;35.50;24.40;;;;;;6121026;29;20099;-76
2023/07/15 09:47:07;;;;;;;4.18;1.92;;;35.50;24.30;;;;;;6128272;29;20040;-76
2023/07/15 09:50:09;;;;;;;9.52;1.90;;;35.50;24.30;;;;;;6125310;29;20127;-74
2023/07/15 09:53:11;;;;;;;5.10;1.95;;;35.50;24.50;;;;;;6106339;29;20039;-76
2023/07/15 09:56:15;;;;;;;2.35;1.77;;;35.50;24.60;;;;;;6104219;29;20047;-76
2023/07/15 09:59:20;;;;;;;6.13;2.05;;;35.50;24.40;;;;;;6136019;28;20039;-75
2023/07/15 10:02:25;;;;;;;2.35;1.77;;;35.70;24.40;;;;;;6118486;29;20107;-73
2023/07/15 10:05:27;;;;;;;3.80;1.80;;;35.60;24.60;;;;;;6119997;29;20043;-74
2023/07/15 10:08:29;;;;;;;3.58;1.70;;;35.60;24.50;;;;;;6104197;29;20058;-74
2023/07/15 10:11:33;;;;;;;3.92;1.80;;;35.50;24.50;;;;;;6135867;29;20038;-74
2023/07/15 10:14:37;;;;;;;4.93;1.83;;;35.50;24.50;;;;;;6119260;29;20036;-74
2023/07/15 10:17:39;;;;;;;6.65;1.90;;;35.50;24.60;;;;;;6102300;29;20599;-76
2023/07/15 10:20:42;;;;;;;3.63;1.80;;;35.60;24.60;;;;;;6122165;29;20032;-76
2023/07/15 10:23:43;;;;;;;3.42;1.52;;;35.60;24.40;;;;;;6097915;29;20170;-74
2023/07/15 10:26:49;;;;;;;4.10;1.73;;;35.70;24.60;;;;;;6113586;29;20035;-73
2023/07/15 10:30:13;;;;;;;4.15;1.80;;;35.70;24.50;;;;;;6099501;29;20040;-74
2023/07/15 10:33:24;;;;;;;4.13;2.00;;;35.70;24.50;;;;;;6113742;29;20040;-75
2023/07/15 10:36:47;;;;;;;4.95;1.85;;;35.80;24.40;;;;;;6099560;29;20441;-75
2023/07/15 10:39:49;;;;;;;5.82;1.77;;;35.80;24.50;;;;;;6097942;29;20370;-75
2023/07/15 10:43:06;;;;;;;11.68;2.00;;;35.80;24.60;;;;;;6129699;29;20174;-76
2023/07/15 10:46:09;;;;;;;1.75;1.55;;;35.80;24.70;;;;;;6121709;29;20046;-75
2023/07/15 10:49:11;;;;;;;5.05;1.58;;;35.90;24.50;;;;;;6137139;29;20083;-76
2023/07/15 10:52:18;;;;;;;4.43;2.08;;;36.10;24.40;;;;;;6141627;29;20185;-75
2023/07/15 10:55:20;;;;;;;3.15;1.45;;;36.20;24.30;;;;;;6161082;28;20034;-75
2023/07/15 10:58:22;;;;;;;2.50;1.80;;;36.30;24.10;;;;;;6146316;28;20046;-76
2023/07/15 11:01:23;;;;;;;3.28;1.77;;;36.30;24.00;;;;;;6162316;28;20459;-75
2023/07/15 11:04:24;;;;;;;4.82;2.00;;;36.40;24.00;;;;;;6162520;28;20036;-76
2023/07/15 11:07:28;;;;;;;5.15;2.25;;;36.30;23.90;;;;;;6147323;28;20135;-73
2023/07/15 11:10:33;;;;;;;4.05;1.58;;;36.60;23.60;;;;;;6130414;29;20039;-74
2023/07/15 11:13:39;;;;;;;4.28;1.90;;;37.30;23.20;;;;;;6147165;28;20046;-75
2023/07/15 11:16:40;;;;;;;3.40;1.60;;;38.00;22.50;;;;;;6146025;28;20063;-76
2023/07/15 11:19:41;;;;;;;2.33;2.13;;;38.60;22.00;;;;;;6144333;28;20083;-75
2023/07/15 11:22:42;;;;;;;6.70;1.90;;;39.00;21.60;;;;;;6131938;28;20111;-75
2023/07/15 11:25:44;;;;;;;6.03;1.63;;;39.40;21.70;;;;;;6122036;29;20467;-74
2023/07/15 11:28:50;;;;;;;4.28;1.77;;;39.60;20.80;;;;;;6113054;29;20189;-72
2023/07/15 11:31:54;;;;;;;21.60;3.65;;;39.80;20.60;;;;;;6119355;29;20504;-74
2023/07/15 11:34:55;;;;;;;2.90;1.70;;;40.00;20.20;;;;;;6104500;29;20032;-72
2023/07/15 11:37:56;;;;;;;5.45;1.75;;;40.20;20.00;;;;;;6120338;29;20799;-75
2023/07/15 11:40:59;;;;;;;5.32;2.00;;;40.50;20.00;;;;;;6120797;29;20046;-74
2023/07/15 11:44:00;;;;;;;9.88;1.70;;;40.80;19.50;;;;;;6120071;29;20055;-73
2023/07/15 11:47:03;;;;;;;2.63;1.60;;;41.00;19.30;;;;;;6121875;29;20062;-74
2023/07/15 11:50:10;;;;;;;2.17;1.50;;;41.10;19.10;;;;;;6139552;29;20047;-74
2023/07/15 11:53:31;;;;;;;9.73;1.83;;;41.20;19.00;;;;;;6159906;28;20027;-73
2023/07/15 11:56:42;;;;;;;4.38;1.83;;;41.30;19.00;;;;;;6143495;28;20043;-72
2023/07/15 11:59:50;;;;;;;3.95;2.05;;;41.40;18.70;;;;;;6147654;28;20023;-74
2023/07/15 12:02:53;;;;;;;6.03;1.73;;;41.60;18.50;;;;;;6128678;28;20043;-72
2023/07/15 12:05:54;;;;;;;2.03;1.38;;;41.70;18.20;;;;;;6104823;29;20036;-78
2023/07/15 12:09:07;;;;;;;7.43;1.65;;;41.80;18.30;;;;;;6105574;29;20055;-81
2023/07/15 12:12:14;;;;;;;2.83;1.63;;;41.90;18.20;;;;;;6121820;29;20137;-81
2023/07/15 12:15:18;;;;;;;2.88;1.70;;;42.30;18.20;;;;;;6122017;29;20051;-80
2023/07/15 12:18:19;;;;;;;3.53;1.83;;;43.00;17.70;;;;;;6104995;29;20028;-78
2023/07/15 12:21:22;;;;;;;6.47;1.70;;;43.30;17.20;;;;;;6119993;29;20095;-76
2023/07/15 12:24:26;;;;;;;2.30;1.45;;;43.40;17.00;;;;;;6138868;29;20039;-78
2023/07/15 12:27:30;;;;;;;3.53;1.83;;;43.60;17.10;;;;;;6128088;29;20448;-78
2023/07/15 12:30:35;;;;;;;2.13;1.50;;;43.90;17.00;;;;;;6137821;29;20496;-80
2023/07/15 12:33:37;;;;;;;2.85;1.63;;;44.10;16.80;;;;;;6122598;29;20044;-76
2023/07/15 12:36:41;;;;;;;1.48;1.38;;;44.00;16.50;;;;;;6121370;29;20027;-76
2023/07/15 12:39:42;;;;;;;3.55;1.27;;;44.10;16.50;;;;;;6120613;28;20544;-76
2023/07/15 12:42:43;;;;;;;8.32;1.90;;;44.40;16.30;;;;;;6127757;28;20094;-76
2023/07/15 12:45:45;;;;;;;4.00;1.70;;;44.60;16.20;;;;;;6130992;29;20031;-77
2023/07/15 12:48:48;;;;;;;3.40;1.42;;;44.70;16.00;;;;;;6135661;29;20050;-77
2023/07/15 12:51:50;;;;;;;2.92;1.63;;;44.80;16.10;;;;;;6122609;29;20055;-77
2023/07/15 12:54:53;;;;;;;2.85;1.60;;;45.10;15.90;;;;;;6121632;29;20032;-76
2023/07/15 12:57:55;;;;;;;2.63;1.70;;;45.10;15.70;;;;;;6158236;28;20493;-78
2023/07/15 13:00:57;;;;;;;3.50;1.58;;;45.20;15.70;;;;;;6129876;29;20039;-78
2023/07/15 13:04:01;;;;;;;6.88;1.67;;;45.30;15.70;;;;;;6147196;28;20105;-77
2023/07/15 13:07:06;;;;;;;2.25;1.50;;;45.70;15.00;;;;;;6145528;28;20032;-78
2023/07/15 13:10:08;;;;;;;4.03;1.58;;;45.90;15.10;;;;;;6147374;29;20344;-77
2023/07/15 13:13:10;;;;;;;3.00;1.35;;;46.20;14.80;;;;;;6147903;28;20035;-78
2023/07/15 13:16:12;;;;;;;3.80;1.35;;;46.40;14.70;;;;;;6150326;28;20040;-78
2023/07/15 13:19:14;;;;;;;2.65;1.60;;;46.80;14.70;;;;;;6143321;29;20298;-79
2023/07/15 13:22:15;;;;;;;2.92;1.80;;;47.20;14.40;;;;;;6156440;29;20036;-77
2023/07/15 13:25:16;;;;;;;3.05;1.67;;;47.40;14.00;;;;;;6140508;29;20043;-76
2023/07/15 13:28:17;;;;;;;2.33;1.48;;;47.70;14.10;;;;;;6123941;29;20054;-77
2023/07/15 13:31:21;;;;;;;2.38;1.50;;;48.20;13.90;;;;;;6138008;29;20034;-79
2023/07/15 13:34:34;;;;;;;2.38;1.38;;;48.40;13.60;;;;;;6137214;28;20036;-78
2023/07/15 13:37:39;;;;;;;4.25;1.60;;;48.60;13.80;;;;;;6124707;28;20034;-79
2023/07/15 13:40:40;;;;;;;2.55;1.42;;;49.20;13.60;;;;;;6119032;29;20032;-78
2023/07/15 13:43:45;;;;;;;1.90;1.70;;;49.80;13.50;;;;;;6147733;28;20035;-79
2023/07/15 13:46:46;;;;;;;5.80;1.70;;;49.90;13.30;;;;;;6166125;28;20043;-77
2023/07/15 13:49:48;;;;;;;5.63;1.52;;;49.80;13.30;;;;;;6166708;28;20046;-76
2023/07/15 13:52:49;;;;;;;2.38;1.58;;;49.80;13.30;;;;;;6148488;29;20039;-78
2023/07/15 13:55:51;;;;;;;4.32;1.80;;;49.90;13.00;;;;;;6142490;29;20134;-78
2023/07/15 13:58:52;;;;;;;7.25;1.75;;;49.90;13.10;;;;;;6134128;29;20028;-79
2023/07/15 14:01:53;;;;;;;4.60;1.80;;;49.90;13.00;;;;;;6128298;29;20042;-76
2023/07/15 14:04:55;;;;;;;7.65;1.88;;;49.90;13.00;;;;;;6150301;29;20035;-77
2023/07/15 14:07:57;;;;;;;3.42;1.80;;;50.10;13.10;;;;;;6132281;29;20479;-76
2023/07/15 14:10:58;;;;;;;5.40;2.17;;;50.40;13.00;;;;;;6144206;29;20055;-79
2023/07/15 14:14:01;;;;;;;3.63;2.00;;;50.70;13.00;;;;;;6145058;28;20023;-78
2023/07/15 14:17:04;;;;;;;10.80;1.98;;;51.20;12.70;;;;;;6161720;29;20030;-77
2023/07/15 14:20:06;;;;;;;2.83;1.90;;;51.60;12.40;;;;;;6144307;29;20031;-77
2023/07/15 14:23:07;;;;;;;3.33;1.77;;;51.80;12.50;;;;;;6142486;29;20078;-77
2023/07/15 14:26:08;;;;;;;2.92;2.10;;;51.90;12.60;;;;;;6142270;29;20032;-77
2023/07/15 14:29:11;;;;;;;6.30;1.90;;;51.80;12.20;;;;;;6139519;29;20774;-77
2023/07/15 14:32:12;;;;;;;3.80;1.70;;;51.80;12.20;;;;;;6129233;29;20334;-75
2023/07/15 14:35:13;;;;;;;1.80;1.58;;;51.60;12.10;;;;;;6142299;29;20036;-76
2023/07/15 14:38:15;;;;;;;3.47;1.65;;;51.30;12.30;;;;;;6126308;29;20043;-79
2023/07/15 14:41:17;;;;;;;2.90;1.73;;;51.20;12.50;;;;;;6126097;29;20452;-76
2023/07/15 14:44:19;;;;;;;4.45;1.65;;;51.30;12.40;;;;;;6142873;28;20032;-78
2023/07/15 14:47:19;;;;;;;2.97;1.80;;;51.30;12.50;;;;;;6125231;29;20107;-76
2023/07/15 14:50:21;;;;;;;3.80;1.60;;;51.30;12.30;;;;;;6134550;29;20397;-76
2023/07/15 14:53:23;;;;;;;4.18;2.10;;;51.20;12.30;;;;;;6118615;29;20124;-77
2023/07/15 14:56:24;;;;;;;5.97;2.20;;;51.30;12.40;;;;;;6119855;29;20433;-79
2023/07/15 14:59:26;;;;;;;4.22;1.52;;;51.10;12.40;;;;;;6140387;29;20114;-77
2023/07/15 15:02:27;;;;;;;4.57;2.10;;;51.20;12.50;;;;;;6121696;29;20043;-77
2023/07/15 15:05:29;;;;;;;6.18;1.73;;;51.20;12.40;;;;;;6140285;28;20110;-77
2023/07/15 15:08:31;;;;;;;6.50;1.92;;;51.00;12.30;;;;;;6124151;29;20032;-78
2023/07/15 15:11:33;;;;;;;1.35;1.17;;;50.60;12.40;;;;;;6124396;28;20046;-76
2023/07/15 15:14:35;;;;;;;3.08;1.92;;;50.20;12.70;;;;;;6107481;29;20028;-77
2023/07/15 15:17:37;;;;;;;7.60;1.70;;;48.90;13.30;;;;;;6123012;29;20038;-76
2023/07/15 15:20:39;;;;;;;8.75;1.75;;;47.30;14.10;;;;;;6138668;28;20559;-76
2023/07/15 15:23:43;;;;;;;10.05;2.63;;;46.00;14.90;;;;;;6124959;29;20102;-75
2023/07/15 15:26:46;;;;;;;5.35;1.98;;;45.70;15.20;;;;;;6139901;29;20071;-77
2023/07/15 15:29:47;;;;;;;6.90;2.45;;;46.00;15.10;;;;;;6121897;29;20071;-74
2023/07/15 15:32:48;;;;;;;4.93;2.30;;;46.40;15.00;;;;;;6120545;29;20035;-75
2023/07/15 15:35:50;;;;;;;4.15;1.80;;;46.80;14.90;;;;;;6120907;29;20035;-76
2023/07/15 15:38:52;;;;;;;2.15;1.77;;;47.30;14.70;;;;;;6136415;28;20032;-76
2023/07/15 15:41:53;;;;;;;2.22;1.52;;;47.80;14.60;;;;;;6137564;29;20031;-74
2023/07/15 15:44:57;;;;;;;4.75;2.03;;;48.40;14.40;;;;;;6122617;29;20433;-77
2023/07/15 15:47:58;;;;;;;4.93;1.67;;;48.50;14.30;;;;;;6121112;29;20086;-75